createdAt,value
2022-07-25T00:00:32.805Z,101038.06
2022-07-25T00:03:02.092Z,101042.47
2022-07-25T00:05:35.746Z,101029.72
2022-07-25T00:08:06.603Z,101030.78
2022-07-25T00:10:34.652Z,101027.31
2022-07-25T00:13:02.650Z,101031.84
2022-07-25T00:15:30.769Z,101019.94
2022-07-25T00:17:58.712Z,101024.75
2022-07-25T00:20:28.154Z,101021.97
2022-07-25T00:22:56.341Z,101017.47
2022-07-25T00:25:24.452Z,101015.09
2022-07-25T00:27:52.640Z,101015.88
2022-07-25T00:30:20.820Z,101010.34
2022-07-25T00:32:49.198Z,100994.44
2022-07-25T00:35:17.355Z,100989.72
2022-07-25T00:37:46.715Z,100997.19
2022-07-25T00:40:14.906Z,100995.13
2022-07-25T00:42:43.111Z,100985.13
2022-07-25T00:45:11.935Z,100984.81
2022-07-25T00:47:39.938Z,100981.50
2022-07-25T00:50:09.029Z,100973.03
2022-07-25T00:52:37.596Z,100971.94
2022-07-25T00:55:08.541Z,100971.63
2022-07-25T00:57:36.587Z,100963.13
2022-07-25T01:00:07.074Z,100970.59
2022-07-25T01:02:35.198Z,100955.34
2022-07-25T01:05:06.984Z,100957.50
2022-07-25T01:07:39.190Z,100948.56
2022-07-25T01:10:10.058Z,100945.34
2022-07-25T01:12:52.705Z,100938.38
2022-07-25T01:15:22.506Z,100939.97
2022-07-25T01:17:51.073Z,100946.81
2022-07-25T01:20:21.031Z,100939.38
2022-07-25T01:22:49.250Z,100938.13
2022-07-25T01:25:17.646Z,100931.63
2022-07-25T01:27:48.847Z,100929.03
2022-07-25T01:30:22.058Z,100928.50
2022-07-25T01:32:50.231Z,100921.81
2022-07-25T01:35:18.304Z,100920.50
2022-07-25T01:37:47.711Z,100918.81
2022-07-25T01:40:16.290Z,100917.75
2022-07-25T01:42:47.299Z,100917.63
2022-07-25T01:45:17.959Z,100922.75
2022-07-25T01:47:49.305Z,100912.09
2022-07-25T01:50:19.757Z,100907.09
2022-07-25T01:52:52.352Z,100899.72
2022-07-25T01:55:20.755Z,100897.59
2022-07-25T01:57:49.790Z,100901.22
2022-07-25T02:00:18.969Z,100903.91
2022-07-25T02:02:47.259Z,100903.16
2022-07-25T02:05:16.211Z,100899.25
2022-07-25T02:07:44.155Z,100908.19
2022-07-25T02:10:13.621Z,100911.19
2022-07-25T02:12:41.652Z,100913.72
2022-07-25T02:15:10.553Z,100901.13
2022-07-25T02:17:38.640Z,100893.47
2022-07-25T02:20:07.919Z,100901.00
2022-07-25T02:22:35.892Z,100907.03
2022-07-25T02:25:03.922Z,100906.28
2022-07-25T02:27:33.374Z,100903.16
2022-07-25T02:30:01.415Z,100905.22
2022-07-25T02:32:29.462Z,100905.78
2022-07-25T02:34:58.406Z,100904.38
2022-07-25T02:37:26.575Z,100888.13
2022-07-25T02:39:54.528Z,100876.59
2022-07-25T02:42:22.458Z,100874.78
2022-07-25T02:44:52.104Z,100872.44
2022-07-25T02:47:20.224Z,100867.41
2022-07-25T02:49:48.151Z,100851.22
2022-07-25T02:52:16.143Z,100845.16
2022-07-25T02:54:44.193Z,100847.72
2022-07-25T02:57:12.243Z,100850.63
2022-07-25T02:59:40.159Z,100838.56
2022-07-25T03:02:09.574Z,100835.03
2022-07-25T03:04:37.656Z,100824.31
2022-07-25T03:07:08.832Z,100817.44
2022-07-25T03:09:36.958Z,100820.28
2022-07-25T03:12:05.746Z,100808.09
2022-07-25T03:14:33.756Z,100803.97
2022-07-25T03:17:01.775Z,100807.63
2022-07-25T03:19:31.181Z,100802.34
2022-07-25T03:21:59.142Z,100801.47
2022-07-25T03:24:27.142Z,100801.19
2022-07-25T03:26:55.467Z,100803.44
2022-07-25T03:29:23.646Z,100802.88
2022-07-25T03:31:52.889Z,100797.56
2022-07-25T03:34:21.270Z,100794.19
2022-07-25T03:36:50.487Z,100781.28
2022-07-25T03:39:18.891Z,100777.47
2022-07-25T03:41:47.008Z,100775.47
2022-07-25T03:44:15.318Z,100777.06
2022-07-25T03:46:43.393Z,100769.47
2022-07-25T03:49:11.675Z,100761.56
2022-07-25T03:51:39.776Z,100762.22
2022-07-25T03:54:13.586Z,100757.47
2022-07-25T03:56:44.265Z,100753.97
2022-07-25T03:59:14.074Z,100760.41
2022-07-25T04:01:43.514Z,100755.56
2022-07-25T04:04:12.102Z,100753.34
2022-07-25T04:06:41.577Z,100744.75
2022-07-25T04:09:12.020Z,100743.13
2022-07-25T04:11:40.373Z,100735.53
2022-07-25T04:14:09.549Z,100726.72
2022-07-25T04:16:37.872Z,100734.78
2022-07-25T04:19:08.982Z,100732.19
2022-07-25T04:21:36.960Z,100732.38
2022-07-25T04:24:05.521Z,100740.97
2022-07-25T04:26:35.209Z,100739.19
2022-07-25T04:29:04.013Z,100735.50
2022-07-25T04:31:32.341Z,100736.16
2022-07-25T04:34:01.238Z,100737.16
2022-07-25T04:36:29.492Z,100735.88
2022-07-25T04:38:57.634Z,100733.88
2022-07-25T04:41:25.908Z,100718.38
2022-07-25T04:43:55.540Z,100724.38
2022-07-25T04:46:24.339Z,100724.38
2022-07-25T04:48:52.807Z,100716.13
2022-07-25T04:51:21.054Z,100713.66
2022-07-25T04:53:49.121Z,100706.50
2022-07-25T04:56:17.070Z,100706.78
2022-07-25T04:58:45.227Z,100705.13
2022-07-25T05:01:14.826Z,100705.44
2022-07-25T05:03:50.034Z,100704.84
2022-07-25T05:06:18.889Z,100699.44
2022-07-25T05:08:47.108Z,100697.56
2022-07-25T05:11:15.039Z,100693.41
2022-07-25T05:13:43.038Z,100703.34
2022-07-25T05:16:11.025Z,100700.72
2022-07-25T05:18:40.550Z,100699.81
2022-07-25T05:21:11.531Z,100707.00
2022-07-25T05:23:39.834Z,100697.38
2022-07-25T05:26:07.961Z,100688.63
2022-07-25T05:28:36.134Z,100686.13
2022-07-25T05:31:04.263Z,100689.47
2022-07-25T05:33:32.318Z,100692.03
2022-07-25T05:36:03.379Z,100692.25
2022-07-25T05:38:31.306Z,100703.88
2022-07-25T05:40:59.213Z,100703.19
2022-07-25T05:43:27.729Z,100689.41
2022-07-25T05:46:01.891Z,100693.69
2022-07-25T05:48:30.282Z,100689.59
2022-07-25T05:50:59.426Z,100689.91
2022-07-25T05:53:28.907Z,100681.00
2022-07-25T05:55:57.050Z,100686.94
2022-07-25T05:58:29.732Z,100690.28
2022-07-25T06:00:58.419Z,100691.44
2022-07-25T06:03:27.690Z,100678.88
2022-07-25T06:05:56.907Z,100683.13
2022-07-25T06:08:30.221Z,100682.06
2022-07-25T06:11:00.264Z,100672.00
2022-07-25T06:13:30.492Z,100665.31
2022-07-25T06:16:03.642Z,100671.22
2022-07-25T06:18:36.064Z,100663.69
2022-07-25T06:21:07.309Z,100664.88
2022-07-25T06:23:39.764Z,100666.78
2022-07-25T06:26:12.194Z,100669.81
2022-07-25T06:28:42.855Z,100670.94
2022-07-25T06:31:11.934Z,100667.03
2022-07-25T06:33:40.986Z,100663.44
2022-07-25T06:36:09.654Z,100668.41
2022-07-25T06:38:38.836Z,100669.25
2022-07-25T06:41:09.772Z,100667.88
2022-07-25T06:43:44.151Z,100676.53
2022-07-25T06:46:15.097Z,100679.31
2022-07-25T06:48:45.902Z,100678.19
2022-07-25T06:51:15.080Z,100674.59
2022-07-25T06:53:44.634Z,100667.91
2022-07-25T06:56:17.615Z,100664.56
2022-07-25T06:58:51.053Z,100668.22
2022-07-25T07:01:23.418Z,100662.94
2022-07-25T07:03:54.088Z,100670.75
2022-07-25T07:06:22.596Z,100669.66
2022-07-25T07:08:51.712Z,100669.38
2022-07-25T07:11:22.715Z,100677.22
2022-07-25T07:13:53.327Z,100684.75
2022-07-25T07:16:21.737Z,100683.38
2022-07-25T07:18:49.839Z,100682.28
2022-07-25T07:21:21.280Z,100682.84
2022-07-25T07:23:53.466Z,100678.94
2022-07-25T07:26:23.737Z,100683.97
2022-07-25T07:28:56.115Z,100672.25
2022-07-25T07:31:24.629Z,100668.66
2022-07-25T07:33:53.528Z,100668.97
2022-07-25T07:36:23.999Z,100669.25
2022-07-25T07:38:54.714Z,100663.97
2022-07-25T07:41:22.904Z,100655.28
2022-07-25T07:43:53.866Z,100667.31
2022-07-25T07:46:22.179Z,100663.13
2022-07-25T07:48:51.743Z,100651.94
2022-07-25T07:51:20.302Z,100657.53
2022-07-25T07:54:06.297Z,100651.94
2022-07-25T07:56:35.458Z,100652.50
2022-07-25T07:59:05.878Z,100652.53
2022-07-25T08:01:34.329Z,100660.63
2022-07-25T08:04:02.249Z,100655.31
2022-07-25T08:06:30.193Z,100657.84
2022-07-25T08:08:58.207Z,100647.22
2022-07-25T08:11:26.790Z,100646.94
2022-07-25T08:13:55.003Z,100647.25
2022-07-25T08:16:24.434Z,100664.00
2022-07-25T08:18:52.504Z,100666.53
2022-07-25T08:21:20.386Z,100662.63
2022-07-25T08:23:53.219Z,100663.19
2022-07-25T08:26:21.218Z,100666.53
2022-07-25T08:28:59.898Z,100658.13
2022-07-25T08:31:38.646Z,100655.34
2022-07-25T08:34:07.069Z,100644.16
2022-07-25T08:36:35.489Z,100660.94
2022-07-25T08:39:03.551Z,100654.78
2022-07-25T08:41:31.803Z,100649.75
2022-07-25T08:44:00.283Z,100638.28
2022-07-25T08:46:30.263Z,100636.63
2022-07-25T08:48:59.922Z,100647.25
2022-07-25T08:51:29.082Z,100652.53
2022-07-25T08:53:57.246Z,100652.81
2022-07-25T08:56:25.665Z,100644.72
2022-07-25T08:58:58.850Z,100639.13
2022-07-25T09:01:29.305Z,100664.00
2022-07-25T09:04:03.105Z,100666.25
2022-07-25T09:06:31.387Z,100678.25
2022-07-25T09:09:01.364Z,100690.56
2022-07-25T09:11:31.387Z,100704.78
2022-07-25T09:14:01.787Z,100695.25
2022-07-25T09:16:31.475Z,100690.78
2022-07-25T09:19:12.060Z,100696.38
2022-07-25T09:21:40.983Z,100697.47
2022-07-25T09:24:11.540Z,100706.97
2022-07-25T09:26:50.867Z,100693.03
2022-07-25T09:29:21.539Z,100701.97
2022-07-25T09:31:50.489Z,100692.44
2022-07-25T09:34:31.726Z,100683.50
2022-07-25T09:36:59.770Z,100690.50
2022-07-25T09:39:35.913Z,100685.78
2022-07-25T09:42:04.166Z,100699.47
2022-07-25T09:44:32.418Z,100693.59
2022-07-25T09:47:11.276Z,100696.97
2022-07-25T09:49:45.087Z,100689.16
2022-07-25T09:52:13.573Z,100681.88
2022-07-25T09:54:41.916Z,100687.47
2022-07-25T09:57:09.976Z,100691.13
2022-07-25T09:59:39.493Z,100686.06
2022-07-25T10:02:10.748Z,100668.19
2022-07-25T10:04:47.364Z,100675.75
2022-07-25T10:07:17.251Z,100685.53
2022-07-25T10:09:47.250Z,100683.56
2022-07-25T10:12:19.630Z,100719.31
2022-07-25T10:15:07.773Z,100726.59
2022-07-25T10:17:36.887Z,100729.09
2022-07-25T10:20:08.912Z,100724.34
2022-07-25T10:22:55.920Z,100719.81
2022-07-25T10:25:25.055Z,100715.63
2022-07-25T10:28:00.022Z,100713.66
2022-07-25T10:30:29.884Z,100704.13
2022-07-25T10:32:59.956Z,100701.34
2022-07-25T10:35:29.997Z,100728.16
2022-07-25T10:37:59.532Z,100732.91
2022-07-25T10:40:29.892Z,100742.69
2022-07-25T10:43:02.938Z,100740.44
2022-07-25T10:45:40.743Z,100715.34
2022-07-25T10:48:13.293Z,100711.34
2022-07-25T10:50:56.062Z,100720.25
2022-07-25T10:53:34.549Z,100724.56
2022-07-25T10:56:08.560Z,100748.78
2022-07-25T10:58:48.530Z,100752.94
2022-07-25T11:01:21.367Z,100764.09
2022-07-25T11:03:50.838Z,100753.78
2022-07-25T11:06:32.485Z,100759.19
2022-07-25T11:09:01.438Z,100755.00
2022-07-25T11:11:37.398Z,100746.63
2022-07-25T11:14:06.803Z,100748.28
2022-07-25T11:16:35.105Z,100755.53
2022-07-25T11:19:03.589Z,100755.81
2022-07-25T11:21:33.444Z,100758.03
2022-07-25T11:24:01.513Z,100742.59
2022-07-25T11:26:29.615Z,100730.03
2022-07-25T11:28:57.602Z,100731.19
2022-07-25T11:31:26.114Z,100746.91
2022-07-25T11:33:54.364Z,100749.44
2022-07-25T11:36:22.613Z,100774.56
2022-07-25T11:38:52.132Z,100750.81
2022-07-25T11:41:30.024Z,100756.19
2022-07-25T11:43:58.573Z,100755.38
2022-07-25T11:46:27.143Z,100748.38
2022-07-25T11:49:09.343Z,100765.44
2022-07-25T11:51:42.988Z,100770.44
2022-07-25T11:54:15.717Z,100771.25
2022-07-25T11:56:47.760Z,100779.28
2022-07-25T11:59:17.015Z,100774.16
2022-07-25T12:01:48.167Z,100777.81
2022-07-25T12:04:20.805Z,100774.25
2022-07-25T12:06:52.024Z,100774.53
2022-07-25T12:09:24.223Z,100776.69
2022-07-25T12:12:04.290Z,100780.59
2022-07-25T12:14:35.515Z,100782.00
2022-07-25T12:17:06.006Z,100788.41
2022-07-25T12:19:36.526Z,100792.84
2022-07-25T12:22:07.757Z,100790.06
2022-07-25T12:24:41.268Z,100799.84
2022-07-25T12:27:13.404Z,100802.88
2022-07-25T12:29:43.311Z,100801.19
2022-07-25T12:32:14.027Z,100803.72
2022-07-25T12:34:45.810Z,100808.16
2022-07-25T12:37:15.713Z,100806.75
2022-07-25T12:39:49.745Z,100807.84
2022-07-25T12:42:20.293Z,100806.16
2022-07-25T12:44:51.498Z,100800.56
2022-07-25T12:47:21.877Z,100810.34
2022-07-25T12:49:52.460Z,100813.44
2022-07-25T12:52:23.806Z,100803.38
2022-07-25T12:54:56.111Z,100807.00
2022-07-25T12:57:28.045Z,100804.22
2022-07-25T12:59:57.228Z,100807.84
2022-07-25T13:02:25.596Z,100804.53
2022-07-25T13:04:53.786Z,100801.50
2022-07-25T13:07:21.982Z,100811.56
2022-07-25T13:09:50.048Z,100813.91
2022-07-25T13:12:19.391Z,100811.66
2022-07-25T13:14:48.086Z,100816.97
2022-07-25T13:17:16.219Z,100826.72
2022-07-25T13:19:45.110Z,100819.41
2022-07-25T13:22:16.332Z,100811.81
2022-07-25T13:24:47.093Z,100819.09
2022-07-25T13:27:15.928Z,100807.97
2022-07-25T13:29:47.626Z,100818.34
2022-07-25T13:32:19.305Z,100815.84
2022-07-25T13:34:49.776Z,100817.25
2022-07-25T13:37:19.378Z,100821.78
2022-07-25T13:39:49.535Z,100821.03
2022-07-25T13:42:18.308Z,100817.66
2022-07-25T13:44:47.972Z,100831.88
2022-07-25T13:47:16.503Z,100829.31
2022-07-25T13:49:46.788Z,100836.31
2022-07-25T13:52:18.212Z,100829.56
2022-07-25T13:54:47.469Z,100827.31
2022-07-25T13:57:16.899Z,100828.88
2022-07-25T13:59:45.049Z,100830.38
2022-07-25T14:02:14.438Z,100827.19
2022-07-25T14:04:42.586Z,100839.06
2022-07-25T14:07:10.596Z,100838.31
2022-07-25T14:09:40.214Z,100832.91
2022-07-25T14:12:10.773Z,100829.66
2022-07-25T14:14:40.329Z,100832.78
2022-07-25T14:17:10.602Z,100832.34
2022-07-25T14:19:42.680Z,100825.06
2022-07-25T14:22:12.722Z,100822.56
2022-07-25T14:24:44.497Z,100833.41
2022-07-25T14:27:15.295Z,100828.72
2022-07-25T14:29:47.442Z,100832.47
2022-07-25T14:32:17.786Z,100836.22
2022-07-25T14:34:49.945Z,100832.31
2022-07-25T14:37:24.983Z,100820.69
2022-07-25T14:39:56.949Z,100820.75
2022-07-25T14:42:25.765Z,100828.03
2022-07-25T14:44:55.747Z,100840.03
2022-07-25T14:47:27.377Z,100824.84
2022-07-25T14:50:00.485Z,100820.03
2022-07-25T14:52:31.376Z,100827.28
2022-07-25T14:55:01.897Z,100836.31
2022-07-25T14:57:33.032Z,100832.00
2022-07-25T15:00:03.936Z,100832.50
2022-07-25T15:02:34.654Z,100840.94
2022-07-25T15:05:09.621Z,100845.66
2022-07-25T15:07:40.821Z,100835.66
2022-07-25T15:10:11.613Z,100844.22
2022-07-25T15:13:07.581Z,100844.06
2022-07-25T15:15:42.241Z,100830.38
2022-07-25T15:18:14.082Z,100841.09
2022-07-25T15:20:49.241Z,100846.50
2022-07-25T15:23:21.447Z,100845.09
2022-07-25T15:26:01.901Z,100857.81
2022-07-25T15:28:36.584Z,100844.59
2022-07-25T15:31:13.159Z,100841.75
2022-07-25T15:33:42.850Z,100846.97
2022-07-25T15:36:14.745Z,100846.59
2022-07-25T15:38:47.817Z,100846.25
2022-07-25T15:41:17.623Z,100860.19
2022-07-25T15:43:51.618Z,100854.88
2022-07-25T15:46:22.620Z,100862.16
2022-07-25T15:48:57.099Z,100853.34
2022-07-25T15:51:31.615Z,100864.66
2022-07-25T15:54:03.371Z,100863.34
2022-07-25T15:56:36.537Z,100864.63
2022-07-25T15:59:07.951Z,100859.81
2022-07-25T16:01:39.557Z,100856.53
2022-07-25T16:04:09.628Z,100864.28
2022-07-25T16:06:43.012Z,100855.63
2022-07-25T16:09:13.142Z,100857.13
2022-07-25T16:11:42.683Z,100856.06
2022-07-25T16:14:11.564Z,100855.56
2022-07-25T16:16:41.913Z,100863.31
2022-07-25T16:19:13.404Z,100869.41
2022-07-25T16:21:45.387Z,100860.50
2022-07-25T16:24:17.672Z,100862.59
2022-07-25T16:26:49.355Z,100868.78
2022-07-25T16:29:20.986Z,100866.34
2022-07-25T16:31:53.829Z,100868.38
2022-07-25T16:34:29.091Z,100864.34
2022-07-25T16:37:02.377Z,100873.03
2022-07-25T16:39:33.413Z,100871.56
2022-07-25T16:42:03.611Z,100864.00
2022-07-25T16:44:37.402Z,100880.06
2022-07-25T16:47:09.320Z,100873.28
2022-07-25T16:49:40.181Z,100878.75
2022-07-25T16:52:11.867Z,100876.66
2022-07-25T16:54:48.331Z,100871.56
2022-07-25T16:57:16.677Z,100878.94
2022-07-25T16:59:44.934Z,100871.84
2022-07-25T17:02:13.077Z,100876.31
2022-07-25T17:04:41.264Z,100877.78
2022-07-25T17:07:10.708Z,100885.50
2022-07-25T17:09:40.526Z,100892.47
2022-07-25T17:12:08.866Z,100889.28
2022-07-25T17:14:37.174Z,100896.25
2022-07-25T17:17:06.838Z,100895.69
2022-07-25T17:19:39.552Z,100897.81
2022-07-25T17:22:08.488Z,100893.09
2022-07-25T17:24:38.951Z,100905.13
2022-07-25T17:27:07.774Z,100904.72
2022-07-25T17:29:35.887Z,100906.16
2022-07-25T17:32:05.856Z,100906.41
2022-07-25T17:34:34.526Z,100901.44
2022-07-25T17:37:03.078Z,100908.44
2022-07-25T17:39:31.592Z,100915.25
2022-07-25T17:42:01.401Z,100913.91
2022-07-25T17:44:29.430Z,100921.47
2022-07-25T17:46:57.635Z,100914.44
2022-07-25T17:49:25.948Z,100918.19
2022-07-25T17:51:53.981Z,100927.56
2022-07-25T17:54:22.041Z,100919.69
2022-07-25T17:56:50.149Z,100909.44
2022-07-25T17:59:22.689Z,100918.38
2022-07-25T18:01:53.341Z,100917.88
2022-07-25T18:04:23.861Z,100929.38
2022-07-25T18:06:54.225Z,100919.81
2022-07-25T18:09:27.801Z,100929.81
2022-07-25T18:12:01.428Z,100921.00
2022-07-25T18:14:34.724Z,100922.81
2022-07-25T18:17:06.792Z,100926.88
2022-07-25T18:19:35.856Z,100931.63
2022-07-25T18:22:06.646Z,100925.22
2022-07-25T18:24:36.421Z,100925.69
2022-07-25T18:27:08.141Z,100936.84
2022-07-25T18:29:40.911Z,100928.25
2022-07-25T18:32:10.937Z,100927.28
2022-07-25T18:34:40.873Z,100932.50
2022-07-25T18:37:10.120Z,100925.16
2022-07-25T18:39:41.361Z,100922.16
2022-07-25T18:42:12.787Z,100924.47
2022-07-25T18:44:43.127Z,100933.16
2022-07-25T18:47:12.075Z,100928.78
2022-07-25T18:49:44.486Z,100923.41
2022-07-25T18:52:13.139Z,100924.78
2022-07-25T18:54:44.465Z,100931.34
2022-07-25T18:57:14.698Z,100925.56
2022-07-25T18:59:45.881Z,100924.47
2022-07-25T19:02:14.284Z,100929.22
2022-07-25T19:04:42.403Z,100926.59
2022-07-25T19:07:10.684Z,100931.97
2022-07-25T19:09:38.945Z,100930.22
2022-07-25T19:12:07.868Z,100935.03
2022-07-25T19:14:35.996Z,100935.88
2022-07-25T19:17:05.745Z,100939.22
2022-07-25T19:19:35.859Z,100951.41
2022-07-25T19:22:05.978Z,100946.59
2022-07-25T19:24:36.424Z,100943.44
2022-07-25T19:27:07.406Z,100945.91
2022-07-25T19:29:38.156Z,100940.38
2022-07-25T19:32:10.471Z,100936.19
2022-07-25T19:34:40.229Z,100947.28
2022-07-25T19:37:09.118Z,100942.59
2022-07-25T19:39:40.688Z,100950.44
2022-07-25T19:42:12.995Z,100956.56
2022-07-25T19:44:43.857Z,100973.03
2022-07-25T19:47:15.442Z,100967.50
2022-07-25T19:49:46.443Z,100966.25
2022-07-25T19:52:17.722Z,100969.72
2022-07-25T19:54:48.030Z,100959.03
2022-07-25T19:57:20.732Z,100970.84
2022-07-25T19:59:49.900Z,100974.53
2022-07-25T20:02:20.786Z,100981.66
2022-07-25T20:04:52.245Z,100984.94
2022-07-25T20:07:25.351Z,100986.41
2022-07-25T20:09:58.203Z,100987.16
2022-07-25T20:12:29.305Z,100989.25
2022-07-25T20:15:00.164Z,100987.06
2022-07-25T20:17:32.287Z,100989.44
2022-07-25T20:20:03.361Z,100982.13
2022-07-25T20:22:38.014Z,100987.25
2022-07-25T20:25:11.666Z,100989.13
2022-07-25T20:27:41.440Z,100989.25
2022-07-25T20:30:14.784Z,100984.66
2022-07-25T20:32:45.928Z,100987.50
2022-07-25T20:35:14.488Z,100989.41
2022-07-25T20:37:45.286Z,100996.00
2022-07-25T20:40:16.082Z,101000.69
2022-07-25T20:42:46.300Z,100986.03
2022-07-25T20:45:15.050Z,100995.13
2022-07-25T20:47:47.105Z,100993.94
2022-07-25T20:50:15.935Z,100993.00
2022-07-25T20:52:45.902Z,100993.09
2022-07-25T20:55:14.514Z,100990.13
2022-07-25T20:57:50.331Z,100996.25
2022-07-25T21:00:19.199Z,100993.38
2022-07-25T21:02:51.667Z,100998.09
2022-07-25T21:05:20.965Z,101005.94
2022-07-25T21:07:50.243Z,100996.84
2022-07-25T21:10:22.045Z,101005.25
2022-07-25T21:12:58.753Z,101002.69
2022-07-25T21:15:31.952Z,101006.94
2022-07-25T21:18:04.886Z,101011.03
2022-07-25T21:20:35.621Z,101012.75
2022-07-25T21:23:07.420Z,101014.19
2022-07-25T21:25:37.818Z,101019.44
2022-07-25T21:28:07.874Z,101025.66
2022-07-25T21:30:37.744Z,101025.72
2022-07-25T21:33:14.220Z,101025.88
2022-07-25T21:35:46.781Z,101023.19
2022-07-25T21:38:34.862Z,101025.34
2022-07-25T21:41:06.223Z,101023.25
2022-07-25T21:43:38.344Z,101028.97
2022-07-25T21:46:08.209Z,101024.81
2022-07-25T21:48:57.721Z,101026.50
2022-07-25T21:51:38.166Z,101027.88
2022-07-25T21:54:20.646Z,101026.84
2022-07-25T21:57:03.377Z,101024.84
2022-07-25T21:59:33.476Z,101031.53
2022-07-25T22:02:02.679Z,101027.19
2022-07-25T22:04:32.270Z,101023.97
2022-07-25T22:07:00.359Z,101028.13
2022-07-25T22:09:28.621Z,101031.88
2022-07-25T22:11:57.697Z,101028.91
2022-07-25T22:14:26.273Z,101030.78
2022-07-25T22:16:56.381Z,101033.03
2022-07-25T22:19:24.975Z,101040.06
2022-07-25T22:21:55.186Z,101033.09
2022-07-25T22:24:23.438Z,101040.84
2022-07-25T22:26:54.393Z,101036.34
2022-07-25T22:29:22.472Z,101036.50
2022-07-25T22:31:50.803Z,101033.81
2022-07-25T22:34:19.231Z,101032.94
2022-07-25T22:36:47.658Z,101040.50
2022-07-25T22:39:17.463Z,101041.41
2022-07-25T22:41:46.087Z,101045.66
2022-07-25T22:44:14.576Z,101045.56
2022-07-25T22:46:42.863Z,101046.81
2022-07-25T22:49:11.658Z,101051.56
2022-07-25T22:51:40.455Z,101044.44
2022-07-25T22:54:08.924Z,101053.06
2022-07-25T22:56:39.030Z,101050.69
2022-07-25T22:59:07.329Z,101059.75
2022-07-25T23:01:35.633Z,101057.31
2022-07-25T23:04:05.720Z,101070.03
2022-07-25T23:06:35.030Z,101064.56
2022-07-25T23:09:03.106Z,101054.59
2022-07-25T23:11:31.346Z,101061.50
2022-07-25T23:14:00.660Z,101063.66
2022-07-25T23:16:28.732Z,101061.88
2022-07-25T23:18:57.283Z,101064.88
2022-07-25T23:21:25.899Z,101066.81
2022-07-25T23:23:55.270Z,101068.25
2022-07-25T23:26:23.283Z,101067.38
2022-07-25T23:28:51.282Z,101066.19
2022-07-25T23:31:21.339Z,101071.50
2022-07-25T23:33:54.131Z,101065.50
2022-07-25T23:36:25.464Z,101063.25
2022-07-25T23:38:53.430Z,101065.75
2022-07-25T23:41:21.430Z,101074.53
2022-07-25T23:43:57.271Z,101064.72
2022-07-25T23:46:31.437Z,101064.31
2022-07-25T23:49:00.745Z,101069.47
2022-07-25T23:51:28.909Z,101076.31
2022-07-25T23:53:56.933Z,101074.91
2022-07-25T23:56:25.553Z,101076.16
2022-07-25T23:58:53.715Z,101080.09
